Phoenix, AZ

11:55 AM MST on July 22, 2017 (GMT -0700)
Deer Valley | | Change Station

Elev 1478 ft 33.45 °N, 112.07 °W | Updated 6 seconds ago

Partly Cloudy
Partly Cloudy
99.1 °F
Feels Like 104 °F
N
3.6
Wind Variable Wind from South
Gusts 4.9 mph

Today
High -- | Low -- °F
--% Chance of Precip.
Yesterday
High -- | Low -- °F
Precip. -- in
Pressure 29.80 in
Visibility 10.0 miles
Clouds Few 10000 ft
Scattered Clouds 16000 ft
Scattered Clouds 20000 ft
Heat Index 104 °F
Dew Point 67 °F
Humidity 35%
Rainfall 0.00 in
Snow Depth Not available.
5:34 AM 7:34 PM
Waning Crescent, 1% visible
METAR KPHX 221851Z VRB03KT 10SM FEW100 SCT160 SCT200 36/14 A2986 RMK AO2 SLP091 T03610144
Pressure 29.80 in
Visibility 10.0 miles
Clouds Few 10000 ft
Scattered Clouds 16000 ft
Scattered Clouds 20000 ft
Heat Index 104 °F
Dew Point 67 °F
Humidity 35%
Rainfall 0.00 in
Snow Depth Not available.
5:34 AM 7:34 PM
Waning Crescent, 1% visible
METAR KPHX 221851Z VRB03KT 10SM FEW100 SCT160 SCT200 36/14 A2986 RMK AO2 SLP091 T03610144

Get Severe Weather Alerts

Thanks for signing up!

Be on the lookout for a verification email in your inbox.

You'll start receiving the daily forecast at 6 AM.

×

10-Day Weather Forecast

Almanac

Astronomy

Jul. 22, 2017 Rise Set
Actual Time
Civil Twilight
Nautical Twilight
Astronomical Twilight
Moon
Length of Visible Light
Length of Day
Tomorrow will be .
, % of the Moon is Illuminated

Today's Extremes

State Highs State Lows

Community

WunderPhotos

Category 6

Welcome to Category 6. This is the collective home for Weather Underground's featured writeups by Dr. Jeff Masters (right), Bob Henson (left), Chris Burt, and other regular contributors.

Nearby

Air Quality

  Air Quality AQ Index Pollutant
Not available.

Snow Depth

Station Depth Elevation

Earthquake Activity

City Distance Mag. Time & Date
Minimum magnitude displayed is 2.5.

Coastal Water Temperatures

Place Temperature

Stations

Nearby Weather Stations

Station Location Temp. Windchill Dew Point Humidity Wind Precip. Elev Updated Type
                   

Watches & Warnings

There are currently no watches in effect.